createdAt,value
2017-03-07T00:00:02.423Z,1020.08
2017-03-07T00:00:43.072Z,1020.07
2017-03-07T00:01:23.776Z,1020.09
2017-03-07T00:02:04.407Z,1020.05
2017-03-07T00:02:45.039Z,1020.02
2017-03-07T00:03:25.666Z,1020.07
2017-03-07T00:04:06.348Z,1020.03
2017-03-07T00:04:47.009Z,1020.03
2017-03-07T00:05:27.643Z,1020.04
2017-03-07T00:06:08.295Z,1020.05
2017-03-07T00:06:48.928Z,1020.06
2017-03-07T00:07:29.572Z,1020.09
2017-03-07T00:08:10.216Z,1020.05
2017-03-07T00:08:50.855Z,1020.09
2017-03-07T00:09:31.504Z,1020.08
2017-03-07T00:10:12.140Z,1020.12
2017-03-07T00:10:52.783Z,1020.1
2017-03-07T00:11:33.431Z,1020.13
2017-03-07T00:12:14.161Z,1020.14
2017-03-07T00:12:54.800Z,1020.15
2017-03-07T00:13:35.533Z,1020.11
2017-03-07T00:14:16.229Z,1020.18
2017-03-07T00:14:56.866Z,1020.17
2017-03-07T00:15:37.507Z,1020.17
2017-03-07T00:16:18.177Z,1020.18
2017-03-07T00:16:58.824Z,1020.15
2017-03-07T00:17:39.447Z,1020.18
2017-03-07T00:18:20.097Z,1020.21
2017-03-07T00:19:00.749Z,1020.19
2017-03-07T00:19:41.398Z,1020.14
2017-03-07T00:20:22.035Z,1020.19
2017-03-07T00:21:02.675Z,1020.16
2017-03-07T00:21:43.324Z,1020.17
2017-03-07T00:22:24.018Z,1020.14
2017-03-07T00:23:04.658Z,1020.14
2017-03-07T00:23:45.297Z,1020.12
2017-03-07T00:24:25.947Z,1020.12
2017-03-07T00:25:06.583Z,1020.12
2017-03-07T00:25:47.230Z,1020.13
2017-03-07T00:26:27.876Z,1020.08
2017-03-07T00:27:08.516Z,1020.09
2017-03-07T00:27:49.161Z,1020.08
2017-03-07T00:28:29.826Z,1020.12
2017-03-07T00:29:10.468Z,1020.09
2017-03-07T00:29:51.126Z,1020.08
2017-03-07T00:30:31.775Z,1020.05
2017-03-07T00:31:12.430Z,1020.09
2017-03-07T00:31:53.594Z,1020.07
2017-03-07T00:32:34.220Z,1020.03
2017-03-07T00:33:14.861Z,1020.03
2017-03-07T00:33:55.527Z,1020.03
2017-03-07T00:34:36.156Z,1020.05
2017-03-07T00:35:16.792Z,1020.03
2017-03-07T00:35:57.530Z,1020.05
2017-03-07T00:36:38.164Z,1020.09
2017-03-07T00:37:18.795Z,1020.08
2017-03-07T00:37:59.445Z,1020.06
2017-03-07T00:38:40.087Z,1020.05
2017-03-07T00:39:20.723Z,1020.06
2017-03-07T00:40:01.361Z,1020.09
2017-03-07T00:40:42.003Z,1020.06
2017-03-07T00:41:22.632Z,1020.02
2017-03-07T00:42:03.288Z,1020.01
2017-03-07T00:42:43.916Z,1020.01
2017-03-07T00:43:24.593Z,1020.03
2017-03-07T00:44:05.223Z,1020.02
2017-03-07T00:44:45.923Z,1020
2017-03-07T00:45:26.560Z,1020.01
2017-03-07T00:46:07.203Z,1019.98
2017-03-07T00:46:47.918Z,1019.98
2017-03-07T00:47:28.547Z,1019.99
2017-03-07T00:48:09.188Z,1020
2017-03-07T00:48:49.872Z,1019.97
2017-03-07T00:49:30.658Z,1020.01
2017-03-07T00:50:11.292Z,1019.98
2017-03-07T00:50:51.926Z,1019.97
2017-03-07T00:51:32.583Z,1020
2017-03-07T00:52:13.220Z,1019.97
2017-03-07T00:52:53.846Z,1019.93
2017-03-07T00:53:34.489Z,1019.95
2017-03-07T00:54:15.147Z,1019.95
2017-03-07T00:54:55.815Z,1019.93
2017-03-07T00:55:36.456Z,1019.95
2017-03-07T00:56:17.106Z,1019.95
2017-03-07T00:56:57.765Z,1019.95
2017-03-07T00:57:38.435Z,1019.93
2017-03-07T00:58:19.074Z,1019.93
2017-03-07T00:58:59.719Z,1019.96
2017-03-07T00:59:40.369Z,1019.96
2017-03-07T01:00:21.000Z,1019.95
2017-03-07T01:01:01.638Z,1020
2017-03-07T01:01:42.289Z,1020
2017-03-07T01:02:22.925Z,1019.98
2017-03-07T01:03:03.582Z,1020
2017-03-07T01:03:44.221Z,1019.96
2017-03-07T01:04:24.863Z,1019.99
2017-03-07T01:05:05.512Z,1019.96
2017-03-07T01:05:46.164Z,1019.97
2017-03-07T01:06:26.820Z,1019.97
2017-03-07T01:07:07.453Z,1019.96
2017-03-07T01:07:48.098Z,1019.97
2017-03-07T01:08:28.753Z,1019.95
2017-03-07T01:09:09.384Z,1019.96
2017-03-07T01:09:50.041Z,1019.89
2017-03-07T01:10:30.683Z,1019.92
2017-03-07T01:11:11.337Z,1019.92
2017-03-07T01:11:51.968Z,1019.86
2017-03-07T01:12:32.628Z,1019.91
2017-03-07T01:13:13.282Z,1019.88
2017-03-07T01:13:53.944Z,1019.86
2017-03-07T01:14:34.577Z,1019.88
2017-03-07T01:15:15.216Z,1019.88
2017-03-07T01:15:55.864Z,1019.86
2017-03-07T01:16:36.493Z,1019.86
2017-03-07T01:17:17.122Z,1019.86
2017-03-07T01:17:57.763Z,1019.83
2017-03-07T01:18:38.392Z,1019.84
2017-03-07T01:19:19.042Z,1019.81
2017-03-07T01:19:59.684Z,1019.84
2017-03-07T01:20:40.404Z,1019.83
2017-03-07T01:21:21.064Z,1019.82
2017-03-07T01:22:01.711Z,1019.82
2017-03-07T01:22:42.366Z,1019.83
2017-03-07T01:23:23.015Z,1019.85
2017-03-07T01:24:03.661Z,1019.8
2017-03-07T01:24:44.295Z,1019.82
2017-03-07T01:25:24.957Z,1019.81
2017-03-07T01:26:05.597Z,1019.81
2017-03-07T01:26:46.237Z,1019.81
2017-03-07T01:27:26.880Z,1019.82
2017-03-07T01:28:07.535Z,1019.78
2017-03-07T01:28:48.205Z,1019.75
2017-03-07T01:29:28.903Z,1019.75
2017-03-07T01:30:09.554Z,1019.74
2017-03-07T01:30:50.202Z,1019.77
2017-03-07T01:31:30.951Z,1019.72
2017-03-07T01:32:11.581Z,1019.74
2017-03-07T01:32:52.206Z,1019.76
2017-03-07T01:33:32.914Z,1019.74
2017-03-07T01:34:13.535Z,1019.74
2017-03-07T01:34:54.167Z,1019.73
2017-03-07T01:35:34.924Z,1019.71
2017-03-07T01:36:15.568Z,1019.69
2017-03-07T01:36:56.229Z,1019.72
2017-03-07T01:37:36.867Z,1019.68
2017-03-07T01:38:17.520Z,1019.66
2017-03-07T01:38:58.166Z,1019.71
2017-03-07T01:39:38.812Z,1019.7
2017-03-07T01:40:19.441Z,1019.68
2017-03-07T01:41:00.071Z,1019.73
2017-03-07T01:41:40.728Z,1019.72
2017-03-07T01:42:21.379Z,1019.65
2017-03-07T01:43:02.031Z,1019.69
2017-03-07T01:43:42.689Z,1019.69
2017-03-07T01:44:23.334Z,1019.66
2017-03-07T01:45:03.967Z,1019.69
2017-03-07T01:45:44.657Z,1019.73
2017-03-07T01:46:25.288Z,1019.73
2017-03-07T01:47:05.935Z,1019.69
2017-03-07T01:47:46.639Z,1019.72
2017-03-07T01:48:27.297Z,1019.7
2017-03-07T01:49:07.933Z,1019.7
2017-03-07T01:49:48.584Z,1019.7
2017-03-07T01:50:29.234Z,1019.67
2017-03-07T01:51:09.888Z,1019.7
2017-03-07T01:51:50.527Z,1019.66
2017-03-07T01:52:31.199Z,1019.65
2017-03-07T01:53:11.821Z,1019.69
2017-03-07T01:53:52.455Z,1019.7
2017-03-07T01:54:33.101Z,1019.68
2017-03-07T01:55:13.806Z,1019.65
2017-03-07T01:55:54.464Z,1019.69
2017-03-07T01:56:35.122Z,1019.63
2017-03-07T01:57:15.770Z,1019.6
2017-03-07T01:57:56.405Z,1019.62
2017-03-07T01:58:37.050Z,1019.64
2017-03-07T01:59:17.827Z,1019.6
2017-03-07T01:59:58.463Z,1019.63
2017-03-07T02:00:39.084Z,1019.59
2017-03-07T02:01:19.744Z,1019.61
2017-03-07T02:02:00.379Z,1019.59
2017-03-07T02:02:41.038Z,1019.59
2017-03-07T02:03:21.695Z,1019.58
2017-03-07T02:04:02.336Z,1019.55
2017-03-07T02:04:42.960Z,1019.54
2017-03-07T02:05:23.707Z,1019.57
2017-03-07T02:06:04.340Z,1019.55
2017-03-07T02:06:44.962Z,1019.55
2017-03-07T02:07:25.602Z,1019.54
2017-03-07T02:08:06.233Z,1019.51
2017-03-07T02:08:46.866Z,1019.48
2017-03-07T02:09:27.526Z,1019.53
2017-03-07T02:10:08.187Z,1019.5
2017-03-07T02:10:48.829Z,1019.52
2017-03-07T02:11:29.457Z,1019.49
2017-03-07T02:12:10.190Z,1019.52
2017-03-07T02:12:50.821Z,1019.49
2017-03-07T02:13:31.452Z,1019.5
2017-03-07T02:14:12.086Z,1019.53
2017-03-07T02:14:52.722Z,1019.54
2017-03-07T02:15:33.374Z,1019.53
2017-03-07T02:16:14.010Z,1019.52
2017-03-07T02:16:54.641Z,1019.55
2017-03-07T02:17:35.282Z,1019.52
2017-03-07T02:18:15.915Z,1019.48
2017-03-07T02:18:56.546Z,1019.52
2017-03-07T02:19:37.250Z,1019.49
2017-03-07T02:20:17.877Z,1019.48
2017-03-07T02:20:58.508Z,1019.47
2017-03-07T02:21:39.225Z,1019.47
2017-03-07T02:22:19.858Z,1019.45
2017-03-07T02:23:00.483Z,1019.41
2017-03-07T02:23:41.167Z,1019.43
2017-03-07T02:24:21.790Z,1019.4
2017-03-07T02:25:02.425Z,1019.44
2017-03-07T02:25:43.148Z,1019.43
2017-03-07T02:26:23.795Z,1019.45
2017-03-07T02:27:04.447Z,1019.42
2017-03-07T02:27:45.106Z,1019.42
2017-03-07T02:28:25.758Z,1019.4
2017-03-07T02:29:06.467Z,1019.44
2017-03-07T02:29:47.112Z,1019.4
2017-03-07T02:30:27.734Z,1019.43
2017-03-07T02:31:08.361Z,1019.45
2017-03-07T02:31:49.014Z,1019.43
2017-03-07T02:32:29.671Z,1019.42
2017-03-07T02:33:10.319Z,1019.39
2017-03-07T02:33:50.942Z,1019.34
2017-03-07T02:34:31.575Z,1019.38
2017-03-07T02:35:12.224Z,1019.36
2017-03-07T02:35:52.863Z,1019.33
2017-03-07T02:36:33.501Z,1019.34
2017-03-07T02:37:14.143Z,1019.36
2017-03-07T02:37:54.797Z,1019.34
2017-03-07T02:38:35.436Z,1019.35
2017-03-07T02:39:16.114Z,1019.35
2017-03-07T02:39:56.753Z,1019.33
2017-03-07T02:40:37.475Z,1019.37
2017-03-07T02:41:18.119Z,1019.38
2017-03-07T02:41:58.754Z,1019.34
2017-03-07T02:42:39.404Z,1019.35
2017-03-07T02:43:20.034Z,1019.35
2017-03-07T02:44:00.676Z,1019.34
2017-03-07T02:44:41.431Z,1019.33
2017-03-07T02:45:22.071Z,1019.32
2017-03-07T02:46:02.698Z,1019.33
2017-03-07T02:46:43.339Z,1019.3
2017-03-07T02:47:23.962Z,1019.3
2017-03-07T02:48:04.633Z,1019.29
2017-03-07T02:48:45.280Z,1019.31
2017-03-07T02:49:25.928Z,1019.32
2017-03-07T02:50:06.548Z,1019.28
2017-03-07T02:50:47.190Z,1019.27
2017-03-07T02:51:27.839Z,1019.28
2017-03-07T02:52:08.470Z,1019.28
2017-03-07T02:52:49.103Z,1019.26
2017-03-07T02:53:29.733Z,1019.27
2017-03-07T02:54:10.358Z,1019.26
2017-03-07T02:54:51.006Z,1019.28
2017-03-07T02:55:32.163Z,1019.27
2017-03-07T02:56:12.788Z,1019.27
2017-03-07T02:56:53.412Z,1019.25
2017-03-07T02:57:34.039Z,1019.25
2017-03-07T02:58:14.704Z,1019.23
2017-03-07T02:58:55.334Z,1019.22
2017-03-07T02:59:35.961Z,1019.24
2017-03-07T03:00:16.650Z,1019.2
2017-03-07T03:00:57.274Z,1019.21
2017-03-07T03:01:37.906Z,1019.22
2017-03-07T03:02:18.542Z,1019.15
2017-03-07T03:02:59.172Z,1019.15
2017-03-07T03:03:39.801Z,1019.14
2017-03-07T03:04:20.426Z,1019.13
2017-03-07T03:05:01.057Z,1019.16
2017-03-07T03:05:41.696Z,1019.14
2017-03-07T03:06:22.326Z,1019.14
2017-03-07T03:07:03.075Z,1019.12
2017-03-07T03:07:43.717Z,1019.13
2017-03-07T03:08:24.346Z,1019.08
2017-03-07T03:09:04.981Z,1019.13
2017-03-07T03:09:45.611Z,1019.15
2017-03-07T03:10:26.243Z,1019.11
2017-03-07T03:11:06.881Z,1019.13
2017-03-07T03:11:47.526Z,1019.09
2017-03-07T03:12:28.219Z,1019.09
2017-03-07T03:13:08.883Z,1019.06
2017-03-07T03:13:49.509Z,1019.05
2017-03-07T03:14:30.150Z,1019.07
2017-03-07T03:15:10.871Z,1019
2017-03-07T03:15:51.506Z,1019.02
2017-03-07T03:16:32.158Z,1019
2017-03-07T03:17:12.790Z,1019
2017-03-07T03:17:53.433Z,1018.97
2017-03-07T03:18:34.066Z,1018.97
2017-03-07T03:19:14.709Z,1018.94
2017-03-07T03:19:55.337Z,1018.95
2017-03-07T03:20:35.961Z,1018.92
2017-03-07T03:21:16.587Z,1018.91
2017-03-07T03:21:57.224Z,1018.9
2017-03-07T03:22:37.855Z,1018.91
2017-03-07T03:23:18.501Z,1018.9
2017-03-07T03:23:59.134Z,1018.88
2017-03-07T03:24:39.777Z,1018.9
2017-03-07T03:25:20.408Z,1018.9
2017-03-07T03:26:01.043Z,1018.9
2017-03-07T03:26:41.724Z,1018.92
2017-03-07T03:27:22.444Z,1018.91
2017-03-07T03:28:03.068Z,1018.93
2017-03-07T03:28:43.726Z,1018.9
2017-03-07T03:29:24.375Z,1018.86
2017-03-07T03:31:42.925Z,1018.87
2017-03-07T03:32:23.547Z,1018.85
2017-03-07T03:33:04.177Z,1018.85
2017-03-07T03:33:44.841Z,1018.84
2017-03-07T03:34:25.542Z,1018.88
2017-03-07T03:35:06.209Z,1018.84
2017-03-07T03:35:46.874Z,1018.83
2017-03-07T03:36:27.522Z,1018.85
2017-03-07T03:37:08.175Z,1018.78
2017-03-07T03:37:48.837Z,1018.79
2017-03-07T03:38:29.460Z,1018.77
2017-03-07T03:39:10.132Z,1018.79
2017-03-07T03:39:50.773Z,1018.77
2017-03-07T03:40:31.401Z,1018.77
2017-03-07T03:41:12.110Z,1018.77
2017-03-07T03:41:52.755Z,1018.79
2017-03-07T03:42:33.377Z,1018.78
2017-03-07T03:43:24.649Z,1018.75
2017-03-07T03:44:05.278Z,1018.79
2017-03-07T03:44:45.970Z,1018.77
2017-03-07T03:45:26.597Z,1018.79
2017-03-07T03:46:07.247Z,1018.79
2017-03-07T03:46:47.886Z,1018.78
2017-03-07T03:47:28.526Z,1018.76
2017-03-07T03:48:09.176Z,1018.79
2017-03-07T03:48:49.804Z,1018.81
2017-03-07T03:49:30.450Z,1018.76
2017-03-07T03:50:11.089Z,1018.75
2017-03-07T03:50:51.701Z,1018.75
2017-03-07T03:51:32.352Z,1018.77
2017-03-07T03:52:13.043Z,1018.8
2017-03-07T03:52:53.683Z,1018.77
2017-03-07T03:53:34.315Z,1018.77
2017-03-07T03:54:14.967Z,1018.78
2017-03-07T03:54:55.599Z,1018.81
2017-03-07T03:55:36.233Z,1018.8
2017-03-07T03:56:16.868Z,1018.79
2017-03-07T03:56:57.501Z,1018.74
2017-03-07T03:57:38.134Z,1018.75
2017-03-07T03:58:18.757Z,1018.75
2017-03-07T03:58:59.391Z,1018.76
2017-03-07T03:59:40.031Z,1018.77
2017-03-07T04:00:20.659Z,1018.78
2017-03-07T04:01:01.289Z,1018.75
2017-03-07T04:01:41.924Z,1018.74
2017-03-07T04:02:22.557Z,1018.76
2017-03-07T04:03:03.187Z,1018.71
2017-03-07T04:03:43.825Z,1018.75
2017-03-07T04:04:24.451Z,1018.74
2017-03-07T04:05:05.064Z,1018.72
2017-03-07T04:05:45.692Z,1018.67
2017-03-07T04:06:26.324Z,1018.69
2017-03-07T04:07:06.952Z,1018.68
2017-03-07T04:07:47.601Z,1018.67
2017-03-07T04:08:28.222Z,1018.69
2017-03-07T04:09:08.844Z,1018.68
2017-03-07T04:09:49.472Z,1018.67
2017-03-07T04:10:30.129Z,1018.67
2017-03-07T04:11:10.841Z,1018.67
2017-03-07T04:11:51.472Z,1018.72
2017-03-07T04:12:32.112Z,1018.66
2017-03-07T04:13:12.736Z,1018.68
2017-03-07T04:13:53.431Z,1018.67
2017-03-07T04:14:34.068Z,1018.67
2017-03-07T04:15:14.691Z,1018.65
2017-03-07T04:15:55.329Z,1018.65
2017-03-07T04:16:36.044Z,1018.61
2017-03-07T04:17:16.610Z,1018.66
2017-03-07T04:17:57.305Z,1018.64
2017-03-07T04:18:37.956Z,1018.64
2017-03-07T04:19:18.608Z,1018.61
2017-03-07T04:19:59.224Z,1018.59
2017-03-07T04:20:39.947Z,1018.6
2017-03-07T04:21:20.602Z,1018.6
2017-03-07T04:22:01.251Z,1018.59
2017-03-07T04:22:41.882Z,1018.63
2017-03-07T04:23:22.530Z,1018.56
2017-03-07T04:24:03.161Z,1018.58
2017-03-07T04:24:43.796Z,1018.58
2017-03-07T04:25:24.429Z,1018.58
2017-03-07T04:26:05.105Z,1018.6
2017-03-07T04:26:45.750Z,1018.58
2017-03-07T04:27:26.377Z,1018.58
2017-03-07T04:28:07.003Z,1018.56
2017-03-07T04:28:47.660Z,1018.58
2017-03-07T04:29:28.284Z,1018.61
2017-03-07T04:30:08.934Z,1018.59
2017-03-07T04:30:49.567Z,1018.59
2017-03-07T04:31:30.210Z,1018.6
2017-03-07T04:32:10.839Z,1018.6
2017-03-07T04:32:51.456Z,1018.63
2017-03-07T04:33:32.078Z,1018.6
2017-03-07T04:34:12.710Z,1018.59
2017-03-07T04:34:53.354Z,1018.6
2017-03-07T04:35:33.990Z,1018.6
2017-03-07T04:36:14.621Z,1018.58
2017-03-07T04:36:55.281Z,1018.64
2017-03-07T04:37:35.923Z,1018.62
2017-03-07T04:38:16.552Z,1018.59
2017-03-07T04:38:57.187Z,1018.59
2017-03-07T04:39:37.825Z,1018.56
2017-03-07T04:40:18.449Z,1018.55
2017-03-07T04:40:59.082Z,1018.59
2017-03-07T04:41:39.721Z,1018.58
2017-03-07T04:42:20.373Z,1018.56
2017-03-07T04:43:01.019Z,1018.56
2017-03-07T04:43:41.635Z,1018.56
2017-03-07T04:44:22.273Z,1018.56
2017-03-07T04:45:02.915Z,1018.58
2017-03-07T04:45:43.532Z,1018.62
2017-03-07T04:46:24.168Z,1018.63
2017-03-07T04:47:04.837Z,1018.64
2017-03-07T04:47:45.480Z,1018.61
2017-03-07T04:48:26.128Z,1018.62
2017-03-07T04:49:06.769Z,1018.59
2017-03-07T04:49:47.414Z,1018.66
2017-03-07T04:50:28.127Z,1018.69
2017-03-07T04:51:08.756Z,1018.69
2017-03-07T04:51:49.397Z,1018.69
2017-03-07T04:52:30.023Z,1018.73
2017-03-07T04:53:10.691Z,1018.74
2017-03-07T04:53:51.328Z,1018.7
2017-03-07T04:54:31.959Z,1018.71
2017-03-07T04:55:12.599Z,1018.71
2017-03-07T04:55:53.222Z,1018.8
2017-03-07T04:56:33.895Z,1018.72
2017-03-07T04:57:14.527Z,1018.71
2017-03-07T04:57:55.156Z,1018.73
2017-03-07T04:58:35.789Z,1018.72
2017-03-07T04:59:16.415Z,1018.73
2017-03-07T04:59:57.082Z,1018.74
2017-03-07T05:00:37.726Z,1018.74
2017-03-07T05:01:18.405Z,1018.74
2017-03-07T05:01:59.034Z,1018.72
2017-03-07T05:02:39.672Z,1018.77
2017-03-07T05:03:20.304Z,1018.74
2017-03-07T05:04:00.926Z,1018.78
2017-03-07T05:04:41.550Z,1018.77
2017-03-07T05:05:22.276Z,1018.77
2017-03-07T05:06:02.917Z,1018.8
2017-03-07T05:06:43.531Z,1018.76
2017-03-07T05:07:24.157Z,1018.75
2017-03-07T05:08:04.794Z,1018.74
2017-03-07T05:08:45.459Z,1018.73
2017-03-07T05:09:26.108Z,1018.73
2017-03-07T05:10:06.767Z,1018.74
2017-03-07T05:10:47.400Z,1018.71
2017-03-07T05:11:28.020Z,1018.72
2017-03-07T05:12:08.660Z,1018.67
2017-03-07T05:12:49.284Z,1018.74
2017-03-07T05:13:29.932Z,1018.7
2017-03-07T05:14:10.571Z,1018.7
2017-03-07T05:14:51.197Z,1018.71
2017-03-07T05:15:31.844Z,1018.69
2017-03-07T05:16:12.472Z,1018.7
2017-03-07T05:16:53.097Z,1018.72
2017-03-07T05:17:34.556Z,1018.72
2017-03-07T05:18:15.183Z,1018.7
2017-03-07T05:18:55.819Z,1018.73
2017-03-07T05:19:36.454Z,1018.69
2017-03-07T05:20:17.076Z,1018.63
2017-03-07T05:20:57.716Z,1018.69
2017-03-07T05:21:38.355Z,1018.66
2017-03-07T05:22:19.026Z,1018.67
2017-03-07T05:22:59.652Z,1018.66
2017-03-07T05:23:40.284Z,1018.67
2017-03-07T05:24:20.944Z,1018.68
2017-03-07T05:25:01.571Z,1018.66
2017-03-07T05:25:42.204Z,1018.7
2017-03-07T05:26:22.840Z,1018.69
2017-03-07T05:27:03.466Z,1018.7
2017-03-07T05:27:44.104Z,1018.73
2017-03-07T05:28:24.756Z,1018.71
2017-03-07T05:29:05.381Z,1018.71
2017-03-07T05:29:46.019Z,1018.75
2017-03-07T05:30:26.655Z,1018.71
2017-03-07T05:31:07.344Z,1018.7
2017-03-07T05:31:47.969Z,1018.71
2017-03-07T05:32:28.614Z,1018.73
2017-03-07T05:33:09.240Z,1018.78
2017-03-07T05:33:49.877Z,1018.73
2017-03-07T05:34:30.507Z,1018.72
2017-03-07T05:35:11.139Z,1018.71
2017-03-07T05:35:51.779Z,1018.72
2017-03-07T05:36:32.402Z,1018.75
2017-03-07T05:37:13.038Z,1018.7
2017-03-07T05:37:53.676Z,1018.73
2017-03-07T05:38:34.333Z,1018.71
2017-03-07T05:39:14.958Z,1018.7
2017-03-07T05:39:55.594Z,1018.69
2017-03-07T05:40:36.240Z,1018.67
2017-03-07T05:41:16.865Z,1018.7
2017-03-07T05:41:57.484Z,1018.7
2017-03-07T05:42:38.138Z,1018.67
2017-03-07T05:43:18.773Z,1018.72
2017-03-07T05:43:59.522Z,1018.69
2017-03-07T05:44:40.080Z,1018.71
2017-03-07T05:45:20.711Z,1018.7
2017-03-07T05:46:01.400Z,1018.73
2017-03-07T05:46:42.070Z,1018.69
2017-03-07T05:47:22.716Z,1018.71
2017-03-07T05:48:03.374Z,1018.66
2017-03-07T05:48:44.002Z,1018.69
2017-03-07T05:49:24.631Z,1018.67
2017-03-07T05:50:05.302Z,1018.66
2017-03-07T05:50:45.947Z,1018.66
2017-03-07T05:51:26.573Z,1018.69
2017-03-07T05:52:07.229Z,1018.63
2017-03-07T05:52:47.853Z,1018.64
2017-03-07T05:53:28.488Z,1018.65
2017-03-07T05:54:09.113Z,1018.66
2017-03-07T05:54:49.753Z,1018.64
2017-03-07T05:55:30.391Z,1018.65
2017-03-07T05:56:11.032Z,1018.68
2017-03-07T05:56:51.670Z,1018.68
2017-03-07T05:57:32.301Z,1018.64
2017-03-07T05:58:12.932Z,1018.71
2017-03-07T05:58:53.566Z,1018.64
2017-03-07T05:59:34.232Z,1018.65
2017-03-07T06:00:14.877Z,1018.7
2017-03-07T06:00:55.498Z,1018.63
2017-03-07T06:01:36.139Z,1018.68
2017-03-07T06:02:16.774Z,1018.71
2017-03-07T06:02:57.405Z,1018.72
2017-03-07T06:03:38.039Z,1018.69
2017-03-07T06:04:18.708Z,1018.74
2017-03-07T06:04:59.347Z,1018.72
2017-03-07T06:05:40.026Z,1018.73
2017-03-07T06:06:20.652Z,1018.73
2017-03-07T06:07:01.274Z,1018.71
2017-03-07T06:07:41.921Z,1018.72
2017-03-07T06:08:22.556Z,1018.74
2017-03-07T06:09:03.184Z,1018.73
2017-03-07T06:09:43.909Z,1018.73
2017-03-07T06:10:24.544Z,1018.72
2017-03-07T06:11:05.185Z,1018.73
2017-03-07T06:11:45.814Z,1018.73
2017-03-07T06:12:26.492Z,1018.75
2017-03-07T06:13:07.166Z,1018.75
2017-03-07T06:13:47.792Z,1018.74
2017-03-07T06:14:28.454Z,1018.73
2017-03-07T06:15:09.079Z,1018.72
2017-03-07T06:15:49.706Z,1018.76
2017-03-07T06:16:30.346Z,1018.76
2017-03-07T06:17:11.006Z,1018.75
2017-03-07T06:17:51.646Z,1018.76
2017-03-07T06:18:32.294Z,1018.75
2017-03-07T06:19:12.929Z,1018.73
2017-03-07T06:19:53.553Z,1018.78
2017-03-07T06:20:34.178Z,1018.76
2017-03-07T06:21:14.806Z,1018.79
2017-03-07T06:21:55.436Z,1018.81
2017-03-07T06:22:36.108Z,1018.81
2017-03-07T06:23:16.749Z,1018.81
2017-03-07T06:23:57.380Z,1018.81
2017-03-07T06:24:38.583Z,1018.79
2017-03-07T06:25:19.208Z,1018.83
2017-03-07T06:25:59.842Z,1018.84
2017-03-07T06:26:40.481Z,1018.8
2017-03-07T06:27:21.116Z,1018.81
2017-03-07T06:28:01.746Z,1018.81
2017-03-07T06:28:42.375Z,1018.78
2017-03-07T06:29:23.007Z,1018.76
2017-03-07T06:30:03.651Z,1018.72
2017-03-07T06:30:44.278Z,1018.74
2017-03-07T06:31:24.915Z,1018.7
2017-03-07T06:32:05.622Z,1018.73
2017-03-07T06:32:46.252Z,1018.74
2017-03-07T06:33:26.886Z,1018.75
2017-03-07T06:34:07.527Z,1018.74
2017-03-07T06:34:48.171Z,1018.74
2017-03-07T06:35:28.846Z,1018.76
2017-03-07T06:36:09.484Z,1018.76
2017-03-07T06:36:50.129Z,1018.74
2017-03-07T06:37:30.770Z,1018.78
2017-03-07T06:38:11.409Z,1018.77
2017-03-07T06:38:52.060Z,1018.78
2017-03-07T06:39:32.718Z,1018.8
2017-03-07T06:40:13.358Z,1018.83
2017-03-07T06:40:54.015Z,1018.78
2017-03-07T06:41:34.644Z,1018.84
2017-03-07T06:42:15.275Z,1018.83
2017-03-07T06:42:55.926Z,1018.83
2017-03-07T06:43:36.670Z,1018.82
2017-03-07T06:44:17.316Z,1018.82
2017-03-07T06:44:57.960Z,1018.8
2017-03-07T06:45:38.592Z,1018.86
2017-03-07T06:46:19.252Z,1018.83
2017-03-07T06:46:59.897Z,1018.82
2017-03-07T06:47:40.573Z,1018.84
2017-03-07T06:48:21.208Z,1018.83
2017-03-07T06:49:01.904Z,1018.79
2017-03-07T06:49:42.539Z,1018.82
2017-03-07T06:50:23.200Z,1018.86
2017-03-07T06:51:03.845Z,1018.84
2017-03-07T06:51:44.481Z,1018.84
2017-03-07T06:52:25.193Z,1018.8
2017-03-07T06:53:05.856Z,1018.86
2017-03-07T06:53:46.479Z,1018.83
2017-03-07T06:54:27.158Z,1018.85
2017-03-07T06:55:07.787Z,1018.85
2017-03-07T06:55:48.417Z,1018.88
2017-03-07T06:56:29.045Z,1018.89
2017-03-07T06:57:09.671Z,1018.92
2017-03-07T06:57:50.296Z,1018.92
2017-03-07T06:58:30.935Z,1018.92
2017-03-07T06:59:11.560Z,1018.93
2017-03-07T06:59:52.196Z,1018.95
2017-03-07T07:00:32.894Z,1018.93
2017-03-07T07:01:13.521Z,1018.92
2017-03-07T07:01:54.146Z,1018.91
2017-03-07T07:02:34.819Z,1018.91
2017-03-07T07:03:15.481Z,1018.92
2017-03-07T07:03:56.107Z,1018.92
2017-03-07T07:04:36.743Z,1018.93
2017-03-07T07:05:17.386Z,1018.89
2017-03-07T07:05:58.032Z,1018.89
2017-03-07T07:06:38.682Z,1018.89
2017-03-07T07:07:19.315Z,1018.9
2017-03-07T07:07:59.937Z,1018.87
2017-03-07T07:08:40.590Z,1018.86
2017-03-07T07:09:21.244Z,1018.85
2017-03-07T07:10:01.886Z,1018.85
2017-03-07T07:10:42.513Z,1018.87
2017-03-07T07:11:23.132Z,1018.87
2017-03-07T07:12:03.755Z,1018.92
2017-03-07T07:12:44.388Z,1018.9
2017-03-07T07:13:25.112Z,1018.9
2017-03-07T07:14:05.740Z,1018.91
2017-03-07T07:14:46.376Z,1018.89
2017-03-07T07:15:27.001Z,1018.91
2017-03-07T07:16:07.644Z,1018.88
2017-03-07T07:16:48.279Z,1018.88
2017-03-07T07:17:28.911Z,1018.89
2017-03-07T07:18:09.532Z,1018.87
2017-03-07T07:18:50.174Z,1018.91
2017-03-07T07:19:30.806Z,1018.91
2017-03-07T07:20:11.443Z,1018.92
2017-03-07T07:20:52.066Z,1018.95
2017-03-07T07:21:32.717Z,1018.95
2017-03-07T07:22:13.344Z,1018.92
2017-03-07T07:22:53.997Z,1018.95
2017-03-07T07:23:34.661Z,1018.96
2017-03-07T07:24:15.302Z,1018.99
2017-03-07T07:24:55.947Z,1018.98
2017-03-07T07:25:36.581Z,1019.01
2017-03-07T07:26:17.206Z,1019
2017-03-07T07:26:57.897Z,1019.03
2017-03-07T07:27:38.539Z,1018.94
2017-03-07T07:28:19.261Z,1018.99
2017-03-07T07:28:59.846Z,1019.01
2017-03-07T07:29:40.469Z,1019.02
2017-03-07T07:30:21.096Z,1019
2017-03-07T07:31:01.737Z,1019.01
2017-03-07T07:31:42.501Z,1019.01
2017-03-07T07:32:23.121Z,1019.02
2017-03-07T07:33:03.741Z,1019.04
2017-03-07T07:33:44.375Z,1019.02
2017-03-07T07:34:24.998Z,1019.01
2017-03-07T07:35:05.641Z,1019
2017-03-07T07:35:46.275Z,1019.02
2017-03-07T07:36:26.915Z,1019.03
2017-03-07T07:37:07.574Z,1019.02
2017-03-07T07:37:48.211Z,1019.03
2017-03-07T07:38:28.859Z,1019.03
2017-03-07T07:39:09.481Z,1019.06
2017-03-07T07:39:50.140Z,1019.04
2017-03-07T07:40:30.777Z,1019
2017-03-07T07:41:11.423Z,1019.01
2017-03-07T07:41:52.059Z,1019.01
2017-03-07T07:42:32.692Z,1019.01
2017-03-07T07:43:13.318Z,1019.03
2017-03-07T07:43:53.983Z,1019.01
2017-03-07T07:44:34.638Z,1019.01
2017-03-07T07:45:15.289Z,1019
2017-03-07T07:45:55.947Z,1019.06
2017-03-07T07:46:36.591Z,1019.03
2017-03-07T07:47:17.248Z,1019.02
2017-03-07T07:47:57.886Z,1018.99
2017-03-07T07:48:38.522Z,1018.97
2017-03-07T07:49:19.159Z,1018.97
2017-03-07T07:50:00.441Z,1019
2017-03-07T07:50:41.070Z,1018.99
2017-03-07T07:51:21.803Z,1018.99
2017-03-07T07:52:02.463Z,1019.01
2017-03-07T07:52:43.124Z,1019
2017-03-07T07:53:23.763Z,1018.96
2017-03-07T07:54:04.426Z,1019
2017-03-07T07:54:45.048Z,1019.02
2017-03-07T07:55:25.697Z,1018.99
2017-03-07T07:56:06.350Z,1019.02
2017-03-07T07:56:47.002Z,1019.05
2017-03-07T07:57:27.658Z,1019.05
2017-03-07T07:58:08.355Z,1019.05
2017-03-07T07:58:48.983Z,1019.03
2017-03-07T07:59:29.603Z,1019.01
2017-03-07T08:00:10.256Z,1019.05
2017-03-07T08:00:50.916Z,1019
2017-03-07T08:01:31.556Z,1019
2017-03-07T08:02:12.191Z,1019.04
2017-03-07T08:02:52.814Z,1018.99
2017-03-07T08:03:33.431Z,1019.02
2017-03-07T08:04:14.754Z,1019.03
2017-03-07T08:04:55.392Z,1019
2017-03-07T08:05:36.057Z,1019
2017-03-07T08:06:16.738Z,1019.02
2017-03-07T08:06:57.369Z,1019.04
2017-03-07T08:07:38.026Z,1019
2017-03-07T08:08:18.657Z,1018.99
2017-03-07T08:08:59.293Z,1019
2017-03-07T08:09:39.967Z,1018.99
2017-03-07T08:10:20.597Z,1019
2017-03-07T08:11:01.251Z,1018.98
2017-03-07T08:11:41.876Z,1018.98
2017-03-07T08:12:22.517Z,1019
2017-03-07T08:13:05.754Z,1019.01
2017-03-07T08:13:46.398Z,1019.03
2017-03-07T08:14:27.034Z,1019.01
2017-03-07T08:15:07.685Z,1019
2017-03-07T08:15:48.327Z,1019.01